sensor_id;sensor_type;location;lat;lon;timestamp;temperature;humidity
37786;DHT22;23625;48.784;9.336;2022-09-01T00:01:42;13.80;99.90
37786;DHT22;23625;48.784;9.336;2022-09-01T00:04:10;13.80;99.90
37786;DHT22;23625;48.784;9.336;2022-09-01T00:06:37;13.80;99.90
37786;DHT22;23625;48.784;9.336;2022-09-01T00:09:08;13.80;99.90
37786;DHT22;23625;48.784;9.336;2022-09-01T00:11:34;13.80;99.90
37786;DHT22;23625;48.784;9.336;2022-09-01T00:14:02;13.70;99.90
37786;DHT22;23625;48.784;9.336;2022-09-01T00:16:29;13.70;99.90
37786;DHT22;23625;48.784;9.336;2022-09-01T00:18:56;13.70;99.90
37786;DHT22;23625;48.784;9.336;2022-09-01T00:21:29;13.70;99.90
37786;DHT22;23625;48.784;9.336;2022-09-01T00:23:55;13.70;99.90
37786;DHT22;23625;48.784;9.336;2022-09-01T00:26:21;13.70;99.90
37786;DHT22;23625;48.784;9.336;2022-09-01T00:28:47;13.70;99.90
37786;DHT22;23625;48.784;9.336;2022-09-01T00:31:12;13.70;99.90
37786;DHT22;23625;48.784;9.336;2022-09-01T00:33:40;13.70;99.90
37786;DHT22;23625;48.784;9.336;2022-09-01T00:36:06;13.70;99.90
37786;DHT22;23625;48.784;9.336;2022-09-01T00:38:32;13.70;99.90
37786;DHT22;23625;48.784;9.336;2022-09-01T00:40:58;13.60;99.90
37786;DHT22;23625;48.784;9.336;2022-09-01T00:46:24;13.50;99.90
37786;DHT22;23625;48.784;9.336;2022-09-01T00:48:56;13.40;99.90
37786;DHT22;23625;48.784;9.336;2022-09-01T00:51:24;13.40;99.90
37786;DHT22;23625;48.784;9.336;2022-09-01T00:53:51;13.40;99.90
37786;DHT22;23625;48.784;9.336;2022-09-01T00:56:17;13.30;99.90
37786;DHT22;23625;48.784;9.336;2022-09-01T00:58:44;13.30;99.90
37786;DHT22;23625;48.784;9.336;2022-09-01T01:01:10;13.30;99.90
37786;DHT22;23625;48.784;9.336;2022-09-01T01:03:37;13.30;99.90
37786;DHT22;23625;48.784;9.336;2022-09-01T01:06:06;13.30;99.90
37786;DHT22;23625;48.784;9.336;2022-09-01T01:08:36;13.20;99.90
37786;DHT22;23625;48.784;9.336;2022-09-01T01:11:13;13.10;99.90
37786;DHT22;23625;48.784;9.336;2022-09-01T01:13:58;13.10;99.90
37786;DHT22;23625;48.784;9.336;2022-09-01T01:16:26;13.00;99.90
37786;DHT22;23625;48.784;9.336;2022-09-01T01:18:53;13.00;99.90
37786;DHT22;23625;48.784;9.336;2022-09-01T01:21:22;13.00;99.90
37786;DHT22;23625;48.784;9.336;2022-09-01T01:26:45;13.00;99.90
37786;DHT22;23625;48.784;9.336;2022-09-01T01:29:12;13.00;99.90
37786;DHT22;23625;48.784;9.336;2022-09-01T01:31:37;13.00;99.90
37786;DHT22;23625;48.784;9.336;2022-09-01T01:34:03;13.00;99.90
37786;DHT22;23625;48.784;9.336;2022-09-01T01:36:34;13.00;99.90
37786;DHT22;23625;48.784;9.336;2022-09-01T01:41:33;13.10;99.90
37786;DHT22;23625;48.784;9.336;2022-09-01T01:44:01;13.00;99.90
37786;DHT22;23625;48.784;9.336;2022-09-01T01:46:31;13.10;99.90
37786;DHT22;23625;48.784;9.336;2022-09-01T01:48:57;13.10;99.90
37786;DHT22;23625;48.784;9.336;2022-09-01T01:51:22;13.00;99.90
37786;DHT22;23625;48.784;9.336;2022-09-01T01:53:52;13.00;99.90
37786;DHT22;23625;48.784;9.336;2022-09-01T01:56:20;13.00;99.90
37786;DHT22;23625;48.784;9.336;2022-09-01T01:58:48;13.00;99.90
37786;DHT22;23625;48.784;9.336;2022-09-01T02:01:13;12.90;99.90
37786;DHT22;23625;48.784;9.336;2022-09-01T02:03:41;13.00;99.90
37786;DHT22;23625;48.784;9.336;2022-09-01T02:06:09;12.90;99.90
37786;DHT22;23625;48.784;9.336;2022-09-01T02:08:37;12.90;99.90
37786;DHT22;23625;48.784;9.336;2022-09-01T02:11:04;12.90;99.90
37786;DHT22;23625;48.784;9.336;2022-09-01T02:13:30;12.90;99.90
37786;DHT22;23625;48.784;9.336;2022-09-01T02:16:00;12.90;99.90
37786;DHT22;23625;48.784;9.336;2022-09-01T02:18:31;12.80;99.90
37786;DHT22;23625;48.784;9.336;2022-09-01T02:21:01;12.80;99.90
37786;DHT22;23625;48.784;9.336;2022-09-01T02:23:27;12.80;99.90
37786;DHT22;23625;48.784;9.336;2022-09-01T02:25:57;12.80;99.90
37786;DHT22;23625;48.784;9.336;2022-09-01T02:28:26;12.80;99.90
37786;DHT22;23625;48.784;9.336;2022-09-01T02:30:52;12.70;99.90
37786;DHT22;23625;48.784;9.336;2022-09-01T02:33:21;12.80;99.90
37786;DHT22;23625;48.784;9.336;2022-09-01T02:35:58;12.80;99.90
37786;DHT22;23625;48.784;9.336;2022-09-01T02:38:25;12.80;99.90
37786;DHT22;23625;48.784;9.336;2022-09-01T02:40:55;12.80;99.90
37786;DHT22;23625;48.784;9.336;2022-09-01T02:43:21;12.80;99.90
37786;DHT22;23625;48.784;9.336;2022-09-01T02:45:48;12.90;99.90
37786;DHT22;23625;48.784;9.336;2022-09-01T02:48:20;12.90;99.90
37786;DHT22;23625;48.784;9.336;2022-09-01T02:50:49;12.80;99.90
37786;DHT22;23625;48.784;9.336;2022-09-01T02:53:15;12.80;99.90
37786;DHT22;23625;48.784;9.336;2022-09-01T02:55:41;12.80;99.90
37786;DHT22;23625;48.784;9.336;2022-09-01T02:58:07;12.70;99.90
37786;DHT22;23625;48.784;9.336;2022-09-01T03:00:38;12.70;99.90
37786;DHT22;23625;48.784;9.336;2022-09-01T03:03:05;12.70;99.90
37786;DHT22;23625;48.784;9.336;2022-09-01T03:05:33;12.60;99.90
37786;DHT22;23625;48.784;9.336;2022-09-01T03:08:09;12.60;99.90
37786;DHT22;23625;48.784;9.336;2022-09-01T03:10:38;12.60;99.90
37786;DHT22;23625;48.784;9.336;2022-09-01T03:13:08;12.60;99.90
37786;DHT22;23625;48.784;9.336;2022-09-01T03:15:35;12.60;99.90
37786;DHT22;23625;48.784;9.336;2022-09-01T03:18:02;12.60;99.90
37786;DHT22;23625;48.784;9.336;2022-09-01T03:20:30;12.60;99.90
37786;DHT22;23625;48.784;9.336;2022-09-01T03:23:02;12.60;99.90
37786;DHT22;23625;48.784;9.336;2022-09-01T03:25:30;12.60;99.90
37786;DHT22;23625;48.784;9.336;2022-09-01T03:27:56;12.60;99.90
37786;DHT22;23625;48.784;9.336;2022-09-01T03:30:28;12.50;99.90
37786;DHT22;23625;48.784;9.336;2022-09-01T03:32:56;12.50;99.90
37786;DHT22;23625;48.784;9.336;2022-09-01T03:35:22;12.50;99.90
37786;DHT22;23625;48.784;9.336;2022-09-01T03:37:47;12.40;99.90
37786;DHT22;23625;48.784;9.336;2022-09-01T03:40:13;12.50;99.90
37786;DHT22;23625;48.784;9.336;2022-09-01T03:42:40;12.40;99.90
37786;DHT22;23625;48.784;9.336;2022-09-01T03:45:08;12.40;99.90
37786;DHT22;23625;48.784;9.336;2022-09-01T03:47:39;12.40;99.90
37786;DHT22;23625;48.784;9.336;2022-09-01T03:50:11;12.40;99.90
37786;DHT22;23625;48.784;9.336;2022-09-01T03:52:52;12.50;99.90
37786;DHT22;23625;48.784;9.336;2022-09-01T03:55:22;12.40;99.90
37786;DHT22;23625;48.784;9.336;2022-09-01T03:57:53;12.50;99.90
37786;DHT22;23625;48.784;9.336;2022-09-01T04:00:21;12.40;99.90
37786;DHT22;23625;48.784;9.336;2022-09-01T04:02:50;12.40;99.90
37786;DHT22;23625;48.784;9.336;2022-09-01T04:05:19;12.40;99.90
37786;DHT22;23625;48.784;9.336;2022-09-01T04:07:46;12.30;99.90
37786;DHT22;23625;48.784;9.336;2022-09-01T04:10:13;12.40;99.90
37786;DHT22;23625;48.784;9.336;2022-09-01T04:12:39;12.30;99.90
37786;DHT22;23625;48.784;9.336;2022-09-01T04:15:05;12.30;99.90
37786;DHT22;23625;48.784;9.336;2022-09-01T04:17:32;12.30;99.90
37786;DHT22;23625;48.784;9.336;2022-09-01T04:20:17;12.40;99.90
37786;DHT22;23625;48.784;9.336;2022-09-01T04:22:45;12.30;99.90
37786;DHT22;23625;48.784;9.336;2022-09-01T04:25:18;12.30;99.90
37786;DHT22;23625;48.784;9.336;2022-09-01T04:27:52;12.30;99.90
37786;DHT22;23625;48.784;9.336;2022-09-01T04:30:20;12.30;99.90
37786;DHT22;23625;48.784;9.336;2022-09-01T04:32:49;12.20;99.90
37786;DHT22;23625;48.784;9.336;2022-09-01T04:35:20;12.20;99.90
37786;DHT22;23625;48.784;9.336;2022-09-01T04:37:59;12.20;99.90
37786;DHT22;23625;48.784;9.336;2022-09-01T04:40:27;12.20;99.90
37786;DHT22;23625;48.784;9.336;2022-09-01T04:42:52;12.20;99.90
37786;DHT22;23625;48.784;9.336;2022-09-01T04:45:18;12.20;99.90
37786;DHT22;23625;48.784;9.336;2022-09-01T04:47:47;12.20;99.90
37786;DHT22;23625;48.784;9.336;2022-09-01T04:50:13;12.20;99.90
37786;DHT22;23625;48.784;9.336;2022-09-01T04:52:42;12.20;99.90
37786;DHT22;23625;48.784;9.336;2022-09-01T04:55:13;12.20;99.90
37786;DHT22;23625;48.784;9.336;2022-09-01T04:57:50;12.10;99.90
37786;DHT22;23625;48.784;9.336;2022-09-01T05:00:18;12.20;99.90
37786;DHT22;23625;48.784;9.336;2022-09-01T05:02:52;12.20;99.90
37786;DHT22;23625;48.784;9.336;2022-09-01T05:05:20;12.10;99.90
37786;DHT22;23625;48.784;9.336;2022-09-01T05:07:46;12.10;99.90
37786;DHT22;23625;48.784;9.336;2022-09-01T05:10:20;12.20;99.90
37786;DHT22;23625;48.784;9.336;2022-09-01T05:12:47;12.20;99.90
37786;DHT22;23625;48.784;9.336;2022-09-01T05:15:14;12.20;99.90
37786;DHT22;23625;48.784;9.336;2022-09-01T05:17:39;12.30;99.90
37786;DHT22;23625;48.784;9.336;2022-09-01T05:20:06;12.30;99.90
37786;DHT22;23625;48.784;9.336;2022-09-01T05:22:32;12.30;99.90
37786;DHT22;23625;48.784;9.336;2022-09-01T05:24:59;12.30;99.90
37786;DHT22;23625;48.784;9.336;2022-09-01T05:27:37;12.30;99.90
37786;DHT22;23625;48.784;9.336;2022-09-01T05:30:04;12.40;99.90
37786;DHT22;23625;48.784;9.336;2022-09-01T05:32:34;12.40;99.90
37786;DHT22;23625;48.784;9.336;2022-09-01T05:35:02;12.40;99.90
37786;DHT22;23625;48.784;9.336;2022-09-01T05:37:31;12.40;99.90
37786;DHT22;23625;48.784;9.336;2022-09-01T05:39:56;12.50;99.90
37786;DHT22;23625;48.784;9.336;2022-09-01T05:42:22;12.60;99.90
37786;DHT22;23625;48.784;9.336;2022-09-01T05:44:49;12.70;99.90
37786;DHT22;23625;48.784;9.336;2022-09-01T05:47:14;12.70;99.90
37786;DHT22;23625;48.784;9.336;2022-09-01T05:49:40;12.80;99.90
37786;DHT22;23625;48.784;9.336;2022-09-01T05:52:06;12.90;99.90
37786;DHT22;23625;48.784;9.336;2022-09-01T05:54:33;13.00;99.90
37786;DHT22;23625;48.784;9.336;2022-09-01T05:57:00;13.10;99.90
37786;DHT22;23625;48.784;9.336;2022-09-01T05:59:27;13.20;99.90
37786;DHT22;23625;48.784;9.336;2022-09-01T06:01:56;13.30;99.90
37786;DHT22;23625;48.784;9.336;2022-09-01T06:04:22;13.40;99.90
37786;DHT22;23625;48.784;9.336;2022-09-01T06:06:50;13.50;99.90
37786;DHT22;23625;48.784;9.336;2022-09-01T06:09:16;13.50;99.90
37786;DHT22;23625;48.784;9.336;2022-09-01T06:11:48;13.70;99.90
37786;DHT22;23625;48.784;9.336;2022-09-01T06:14:15;13.80;99.90
37786;DHT22;23625;48.784;9.336;2022-09-01T06:16:41;13.90;99.90
37786;DHT22;23625;48.784;9.336;2022-09-01T06:19:08;14.00;99.90
37786;DHT22;23625;48.784;9.336;2022-09-01T06:21:35;14.10;99.90
37786;DHT22;23625;48.784;9.336;2022-09-01T06:24:02;14.20;99.90
37786;DHT22;23625;48.784;9.336;2022-09-01T06:26:34;14.30;99.90
37786;DHT22;23625;48.784;9.336;2022-09-01T06:29:02;14.50;99.90
37786;DHT22;23625;48.784;9.336;2022-09-01T06:31:32;14.60;99.90
37786;DHT22;23625;48.784;9.336;2022-09-01T06:34:00;14.70;99.90
37786;DHT22;23625;48.784;9.336;2022-09-01T06:36:27;14.90;99.90
37786;DHT22;23625;48.784;9.336;2022-09-01T06:38:53;15.10;99.90
37786;DHT22;23625;48.784;9.336;2022-09-01T06:41:20;15.30;99.90
37786;DHT22;23625;48.784;9.336;2022-09-01T06:43:47;15.40;99.90
37786;DHT22;23625;48.784;9.336;2022-09-01T06:46:15;15.50;99.90
37786;DHT22;23625;48.784;9.336;2022-09-01T06:48:41;15.60;99.90
37786;DHT22;23625;48.784;9.336;2022-09-01T06:51:15;15.70;99.90
37786;DHT22;23625;48.784;9.336;2022-09-01T06:53:42;15.90;99.90
37786;DHT22;23625;48.784;9.336;2022-09-01T06:56:09;16.10;99.90
37786;DHT22;23625;48.784;9.336;2022-09-01T06:58:40;16.20;99.90
37786;DHT22;23625;48.784;9.336;2022-09-01T07:01:10;16.30;99.90
37786;DHT22;23625;48.784;9.336;2022-09-01T07:03:41;16.30;99.90
37786;DHT22;23625;48.784;9.336;2022-09-01T07:06:08;16.40;99.90
37786;DHT22;23625;48.784;9.336;2022-09-01T07:08:35;16.50;99.90
37786;DHT22;23625;48.784;9.336;2022-09-01T07:11:08;16.60;99.90
37786;DHT22;23625;48.784;9.336;2022-09-01T07:13:34;16.60;99.90
37786;DHT22;23625;48.784;9.336;2022-09-01T07:16:01;16.70;99.90
37786;DHT22;23625;48.784;9.336;2022-09-01T07:18:29;16.90;99.90
37786;DHT22;23625;48.784;9.336;2022-09-01T07:20:56;16.90;99.90
37786;DHT22;23625;48.784;9.336;2022-09-01T07:23:21;17.00;99.90
37786;DHT22;23625;48.784;9.336;2022-09-01T07:25:49;17.10;99.90
37786;DHT22;23625;48.784;9.336;2022-09-01T07:28:20;17.10;99.90
37786;DHT22;23625;48.784;9.336;2022-09-01T07:30:49;17.20;99.90
37786;DHT22;23625;48.784;9.336;2022-09-01T07:33:17;17.10;99.90
37786;DHT22;23625;48.784;9.336;2022-09-01T07:35:48;17.20;99.90
37786;DHT22;23625;48.784;9.336;2022-09-01T07:38:14;17.20;99.90
37786;DHT22;23625;48.784;9.336;2022-09-01T07:40:44;17.30;99.90
37786;DHT22;23625;48.784;9.336;2022-09-01T07:43:24;17.30;99.90
37786;DHT22;23625;48.784;9.336;2022-09-01T07:45:53;17.30;99.90
37786;DHT22;23625;48.784;9.336;2022-09-01T07:48:21;17.40;99.90
37786;DHT22;23625;48.784;9.336;2022-09-01T07:50:49;17.40;99.90
37786;DHT22;23625;48.784;9.336;2022-09-01T07:53:18;17.50;99.90
37786;DHT22;23625;48.784;9.336;2022-09-01T07:55:45;17.60;99.90
37786;DHT22;23625;48.784;9.336;2022-09-01T07:58:12;17.70;99.90
37786;DHT22;23625;48.784;9.336;2022-09-01T08:00:41;17.80;99.90
37786;DHT22;23625;48.784;9.336;2022-09-01T08:03:11;17.80;99.90
37786;DHT22;23625;48.784;9.336;2022-09-01T08:05:37;17.90;99.90
37786;DHT22;23625;48.784;9.336;2022-09-01T08:08:03;18.00;99.90
37786;DHT22;23625;48.784;9.336;2022-09-01T08:10:31;18.00;99.90
37786;DHT22;23625;48.784;9.336;2022-09-01T08:12:57;18.10;99.90
37786;DHT22;23625;48.784;9.336;2022-09-01T08:15:23;18.20;99.90
37786;DHT22;23625;48.784;9.336;2022-09-01T08:17:49;18.20;99.90
37786;DHT22;23625;48.784;9.336;2022-09-01T08:20:15;18.30;99.90
37786;DHT22;23625;48.784;9.336;2022-09-01T08:22:40;18.30;99.90
37786;DHT22;23625;48.784;9.336;2022-09-01T08:25:07;18.40;99.90
37786;DHT22;23625;48.784;9.336;2022-09-01T08:27:35;18.40;99.90
37786;DHT22;23625;48.784;9.336;2022-09-01T08:30:04;18.40;99.90
37786;DHT22;23625;48.784;9.336;2022-09-01T08:32:30;18.50;99.90
37786;DHT22;23625;48.784;9.336;2022-09-01T08:34:56;18.60;99.90
37786;DHT22;23625;48.784;9.336;2022-09-01T08:37:22;18.60;99.90
37786;DHT22;23625;48.784;9.336;2022-09-01T08:39:50;18.60;99.90
37786;DHT22;23625;48.784;9.336;2022-09-01T08:45:14;18.70;99.90
37786;DHT22;23625;48.784;9.336;2022-09-01T08:47:44;18.70;99.90
37786;DHT22;23625;48.784;9.336;2022-09-01T08:50:10;18.80;99.90
37786;DHT22;23625;48.784;9.336;2022-09-01T08:52:43;18.90;99.90
37786;DHT22;23625;48.784;9.336;2022-09-01T08:55:24;19.00;99.90
37786;DHT22;23625;48.784;9.336;2022-09-01T08:57:53;19.10;99.90
37786;DHT22;23625;48.784;9.336;2022-09-01T09:00:23;19.20;99.90
37786;DHT22;23625;48.784;9.336;2022-09-01T09:03:20;19.30;99.90
37786;DHT22;23625;48.784;9.336;2022-09-01T09:06:01;19.30;99.90
37786;DHT22;23625;48.784;9.336;2022-09-01T09:16:45;19.50;99.90
37786;DHT22;23625;48.784;9.336;2022-09-01T09:21:49;19.50;99.90
37786;DHT22;23625;48.784;9.336;2022-09-01T09:27:30;19.60;99.90
37786;DHT22;23625;48.784;9.336;2022-09-01T09:32:24;19.70;99.90
37786;DHT22;23625;48.784;9.336;2022-09-01T09:37:43;19.60;99.90
37786;DHT22;23625;48.784;9.336;2022-09-01T09:43:03;19.70;99.90
37786;DHT22;23625;48.784;9.336;2022-09-01T09:45:36;19.90;99.90
37786;DHT22;23625;48.784;9.336;2022-09-01T09:48:06;20.40;99.90
37786;DHT22;23625;48.784;9.336;2022-09-01T09:50:36;20.90;99.90
37786;DHT22;23625;48.784;9.336;2022-09-01T09:55:57;21.20;99.90
37786;DHT22;23625;48.784;9.336;2022-09-01T09:58:27;21.30;99.90
37786;DHT22;23625;48.784;9.336;2022-09-01T10:01:08;21.30;99.90
37786;DHT22;23625;48.784;9.336;2022-09-01T10:04:00;21.20;99.90
37786;DHT22;23625;48.784;9.336;2022-09-01T10:06:39;21.30;99.90
37786;DHT22;23625;48.784;9.336;2022-09-01T10:09:32;21.30;99.90
37786;DHT22;23625;48.784;9.336;2022-09-01T10:11:58;21.40;99.90
37786;DHT22;23625;48.784;9.336;2022-09-01T10:14:32;21.80;99.90
37786;DHT22;23625;48.784;9.336;2022-09-01T10:17:01;22.10;99.90
37786;DHT22;23625;48.784;9.336;2022-09-01T10:19:28;22.10;99.90
37786;DHT22;23625;48.784;9.336;2022-09-01T10:21:57;22.10;99.90
37786;DHT22;23625;48.784;9.336;2022-09-01T10:24:33;22.00;99.90
37786;DHT22;23625;48.784;9.336;2022-09-01T10:27:07;22.00;99.90
37786;DHT22;23625;48.784;9.336;2022-09-01T10:30:00;21.90;99.90
37786;DHT22;23625;48.784;9.336;2022-09-01T10:32:36;21.80;99.90
37786;DHT22;23625;48.784;9.336;2022-09-01T10:35:03;21.80;99.90
37786;DHT22;23625;48.784;9.336;2022-09-01T10:37:30;21.70;99.90
37786;DHT22;23625;48.784;9.336;2022-09-01T10:40:19;21.50;99.90
37786;DHT22;23625;48.784;9.336;2022-09-01T10:43:21;21.40;99.90
37786;DHT22;23625;48.784;9.336;2022-09-01T10:45:46;21.30;99.90
37786;DHT22;23625;48.784;9.336;2022-09-01T10:50:50;21.10;99.90
37786;DHT22;23625;48.784;9.336;2022-09-01T11:04:14;20.90;99.90
37786;DHT22;23625;48.784;9.336;2022-09-01T11:09:17;21.10;99.90
37786;DHT22;23625;48.784;9.336;2022-09-01T11:12:34;21.60;99.90
37786;DHT22;23625;48.784;9.336;2022-09-01T11:17:56;22.80;99.00
37786;DHT22;23625;48.784;9.336;2022-09-01T11:20:35;23.20;98.60
37786;DHT22;23625;48.784;9.336;2022-09-01T11:25:50;23.70;92.50
37786;DHT22;23625;48.784;9.336;2022-09-01T11:47:27;24.10;91.40
37786;DHT22;23625;48.784;9.336;2022-09-01T11:49:58;24.20;91.00
37786;DHT22;23625;48.784;9.336;2022-09-01T11:52:27;24.40;90.70
37786;DHT22;23625;48.784;9.336;2022-09-01T11:54:55;24.10;87.40
37786;DHT22;23625;48.784;9.336;2022-09-01T11:57:34;23.70;87.80
37786;DHT22;23625;48.784;9.336;2022-09-01T12:00:05;23.40;88.00
37786;DHT22;23625;48.784;9.336;2022-09-01T12:02:33;23.30;90.40
37786;DHT22;23625;48.784;9.336;2022-09-01T12:05:01;23.50;90.70
37786;DHT22;23625;48.784;9.336;2022-09-01T12:07:41;23.60;87.10
37786;DHT22;23625;48.784;9.336;2022-09-01T12:12:45;23.90;80.60
37786;DHT22;23625;48.784;9.336;2022-09-01T12:15:20;24.10;78.90
37786;DHT22;23625;48.784;9.336;2022-09-01T12:17:47;23.90;78.20
37786;DHT22;23625;48.784;9.336;2022-09-01T12:20:28;23.90;78.90
37786;DHT22;23625;48.784;9.336;2022-09-01T12:22:56;24.00;81.50
37786;DHT22;23625;48.784;9.336;2022-09-01T12:25:28;24.40;82.30
37786;DHT22;23625;48.784;9.336;2022-09-01T12:27:55;24.60;78.40
37786;DHT22;23625;48.784;9.336;2022-09-01T12:30:21;24.90;78.70
37786;DHT22;23625;48.784;9.336;2022-09-01T12:32:47;25.00;80.60
37786;DHT22;23625;48.784;9.336;2022-09-01T12:35:21;25.10;76.90
37786;DHT22;23625;48.784;9.336;2022-09-01T12:37:47;25.10;75.80
37786;DHT22;23625;48.784;9.336;2022-09-01T12:40:31;24.90;73.10
37786;DHT22;23625;48.784;9.336;2022-09-01T12:42:57;24.60;75.30
37786;DHT22;23625;48.784;9.336;2022-09-01T12:45:45;24.50;79.70
37786;DHT22;23625;48.784;9.336;2022-09-01T12:50:50;24.10;76.80
37786;DHT22;23625;48.784;9.336;2022-09-01T12:53:21;23.80;79.80
37786;DHT22;23625;48.784;9.336;2022-09-01T12:56:22;23.50;81.60
37786;DHT22;23625;48.784;9.336;2022-09-01T12:59:20;23.30;87.40
37786;DHT22;23625;48.784;9.336;2022-09-01T13:01:46;23.00;84.70
37786;DHT22;23625;48.784;9.336;2022-09-01T13:04:22;23.50;85.60
37786;DHT22;23625;48.784;9.336;2022-09-01T13:06:50;23.80;80.40
37786;DHT22;23625;48.784;9.336;2022-09-01T13:09:16;23.70;79.30
37786;DHT22;23625;48.784;9.336;2022-09-01T13:11:42;24.10;75.70
37786;DHT22;23625;48.784;9.336;2022-09-01T13:14:13;24.50;72.60
37786;DHT22;23625;48.784;9.336;2022-09-01T13:16:38;24.80;71.50
37786;DHT22;23625;48.784;9.336;2022-09-01T13:19:04;25.10;67.60
37786;DHT22;23625;48.784;9.336;2022-09-01T13:21:32;25.40;66.70
37786;DHT22;23625;48.784;9.336;2022-09-01T13:23:59;25.70;64.90
37786;DHT22;23625;48.784;9.336;2022-09-01T13:26:25;25.90;65.00
37786;DHT22;23625;48.784;9.336;2022-09-01T13:28:52;25.90;63.00
37786;DHT22;23625;48.784;9.336;2022-09-01T13:31:18;26.10;64.60
37786;DHT22;23625;48.784;9.336;2022-09-01T13:33:43;26.30;62.10
37786;DHT22;23625;48.784;9.336;2022-09-01T13:36:09;26.40;62.70
37786;DHT22;23625;48.784;9.336;2022-09-01T13:38:35;26.20;61.00
37786;DHT22;23625;48.784;9.336;2022-09-01T13:41:00;26.10;63.00
37786;DHT22;23625;48.784;9.336;2022-09-01T13:43:27;26.40;61.00
37786;DHT22;23625;48.784;9.336;2022-09-01T13:45:53;26.40;62.40
37786;DHT22;23625;48.784;9.336;2022-09-01T13:48:20;26.30;61.00
37786;DHT22;23625;48.784;9.336;2022-09-01T13:50:48;26.40;61.30
37786;DHT22;23625;48.784;9.336;2022-09-01T13:53:15;26.40;62.30
37786;DHT22;23625;48.784;9.336;2022-09-01T13:55:41;26.40;62.70
37786;DHT22;23625;48.784;9.336;2022-09-01T13:58:07;26.40;61.40
37786;DHT22;23625;48.784;9.336;2022-09-01T14:00:36;26.40;62.70
37786;DHT22;23625;48.784;9.336;2022-09-01T14:03:08;26.40;63.00
37786;DHT22;23625;48.784;9.336;2022-09-01T14:05:38;26.60;62.40
37786;DHT22;23625;48.784;9.336;2022-09-01T14:08:05;26.70;63.90
37786;DHT22;23625;48.784;9.336;2022-09-01T14:10:32;26.90;62.00
37786;DHT22;23625;48.784;9.336;2022-09-01T14:12:58;26.90;59.90
37786;DHT22;23625;48.784;9.336;2022-09-01T14:15:24;26.70;58.90
37786;DHT22;23625;48.784;9.336;2022-09-01T14:17:52;26.80;58.40
37786;DHT22;23625;48.784;9.336;2022-09-01T14:20:22;26.70;60.00
37786;DHT22;23625;48.784;9.336;2022-09-01T14:22:48;26.70;59.40
37786;DHT22;23625;48.784;9.336;2022-09-01T14:25:16;26.60;58.10
37786;DHT22;23625;48.784;9.336;2022-09-01T14:27:43;26.30;57.90
37786;DHT22;23625;48.784;9.336;2022-09-01T14:30:12;26.30;57.50
37786;DHT22;23625;48.784;9.336;2022-09-01T14:32:38;26.20;57.80
37786;DHT22;23625;48.784;9.336;2022-09-01T14:35:04;26.30;59.50
37786;DHT22;23625;48.784;9.336;2022-09-01T14:37:33;26.30;58.20
37786;DHT22;23625;48.784;9.336;2022-09-01T14:39:58;26.40;58.50
37786;DHT22;23625;48.784;9.336;2022-09-01T14:42:24;26.50;57.90
37786;DHT22;23625;48.784;9.336;2022-09-01T14:44:51;26.60;58.10
37786;DHT22;23625;48.784;9.336;2022-09-01T14:47:17;26.70;57.80
37786;DHT22;23625;48.784;9.336;2022-09-01T14:49:43;26.50;59.40
37786;DHT22;23625;48.784;9.336;2022-09-01T14:52:09;26.40;59.50
37786;DHT22;23625;48.784;9.336;2022-09-01T14:54:36;26.20;59.20
37786;DHT22;23625;48.784;9.336;2022-09-01T14:57:03;26.20;60.90
37786;DHT22;23625;48.784;9.336;2022-09-01T14:59:29;26.20;59.00
37786;DHT22;23625;48.784;9.336;2022-09-01T15:01:54;26.30;58.80
37786;DHT22;23625;48.784;9.336;2022-09-01T15:04:20;26.20;57.60
37786;DHT22;23625;48.784;9.336;2022-09-01T15:06:46;26.10;58.30
37786;DHT22;23625;48.784;9.336;2022-09-01T15:09:12;26.00;56.70
37786;DHT22;23625;48.784;9.336;2022-09-01T15:11:37;25.90;57.80
37786;DHT22;23625;48.784;9.336;2022-09-01T15:14:04;25.90;57.80
37786;DHT22;23625;48.784;9.336;2022-09-01T15:16:30;25.80;57.30
37786;DHT22;23625;48.784;9.336;2022-09-01T15:18:59;25.50;57.50
37786;DHT22;23625;48.784;9.336;2022-09-01T15:21:29;25.40;58.40
37786;DHT22;23625;48.784;9.336;2022-09-01T15:23:59;25.40;58.30
37786;DHT22;23625;48.784;9.336;2022-09-01T15:26:25;25.50;58.20
37786;DHT22;23625;48.784;9.336;2022-09-01T15:28:51;25.50;57.90
37786;DHT22;23625;48.784;9.336;2022-09-01T15:31:19;25.20;57.60
37786;DHT22;23625;48.784;9.336;2022-09-01T15:33:46;25.10;58.70
37786;DHT22;23625;48.784;9.336;2022-09-01T15:36:17;25.00;58.70
37786;DHT22;23625;48.784;9.336;2022-09-01T15:38:43;25.10;59.80
37786;DHT22;23625;48.784;9.336;2022-09-01T15:43:42;25.10;59.20
37786;DHT22;23625;48.784;9.336;2022-09-01T15:46:08;25.20;59.40
37786;DHT22;23625;48.784;9.336;2022-09-01T15:48:34;25.20;59.30
37786;DHT22;23625;48.784;9.336;2022-09-01T15:53:48;25.30;59.30
37786;DHT22;23625;48.784;9.336;2022-09-01T15:56:14;25.30;58.60
37786;DHT22;23625;48.784;9.336;2022-09-01T15:58:42;25.20;59.20
37786;DHT22;23625;48.784;9.336;2022-09-01T16:01:08;25.10;57.60
37786;DHT22;23625;48.784;9.336;2022-09-01T16:03:33;25.10;57.70
37786;DHT22;23625;48.784;9.336;2022-09-01T16:06:00;25.10;57.60
37786;DHT22;23625;48.784;9.336;2022-09-01T16:08:26;25.10;57.30
37786;DHT22;23625;48.784;9.336;2022-09-01T16:10:52;25.10;57.60
37786;DHT22;23625;48.784;9.336;2022-09-01T16:13:19;25.10;57.80
37786;DHT22;23625;48.784;9.336;2022-09-01T16:15:55;25.00;58.60
37786;DHT22;23625;48.784;9.336;2022-09-01T16:18:40;24.70;57.90
37786;DHT22;23625;48.784;9.336;2022-09-01T16:24:04;24.70;58.00
37786;DHT22;23625;48.784;9.336;2022-09-01T16:26:33;24.60;59.50
37786;DHT22;23625;48.784;9.336;2022-09-01T16:29:01;24.40;59.70
37786;DHT22;23625;48.784;9.336;2022-09-01T16:31:30;24.40;60.60
37786;DHT22;23625;48.784;9.336;2022-09-01T16:33:59;24.30;61.10
37786;DHT22;23625;48.784;9.336;2022-09-01T16:44:41;24.20;63.40
37786;DHT22;23625;48.784;9.336;2022-09-01T16:47:22;24.20;63.20
37786;DHT22;23625;48.784;9.336;2022-09-01T16:50:11;24.20;64.20
37786;DHT22;23625;48.784;9.336;2022-09-01T16:55:26;24.30;63.60
37786;DHT22;23625;48.784;9.336;2022-09-01T16:57:57;24.20;64.10
37786;DHT22;23625;48.784;9.336;2022-09-01T17:00:36;24.10;63.20
37786;DHT22;23625;48.784;9.336;2022-09-01T17:03:17;23.90;64.00
37786;DHT22;23625;48.784;9.336;2022-09-01T17:06:12;23.80;63.50
37786;DHT22;23625;48.784;9.336;2022-09-01T17:08:49;23.60;64.50
37786;DHT22;23625;48.784;9.336;2022-09-01T17:13:55;23.20;66.90
37786;DHT22;23625;48.784;9.336;2022-09-01T17:16:26;23.10;68.30
37786;DHT22;23625;48.784;9.336;2022-09-01T17:18:58;23.00;69.90
37786;DHT22;23625;48.784;9.336;2022-09-01T17:21:38;22.80;70.50
37786;DHT22;23625;48.784;9.336;2022-09-01T17:27:00;22.60;72.80
37786;DHT22;23625;48.784;9.336;2022-09-01T17:29:51;22.50;72.70
37786;DHT22;23625;48.784;9.336;2022-09-01T17:43:38;22.00;79.70